Time;durP1;ratioP1;P1;durP2;ratioP2;P2;SDS_P1;SDS_P2;PMS_P1;PMS_P2;Temp;Humidity;BMP_temperature;BMP_pressure;BME280_temperature;BME280_humidity;BME280_pressure;Samples;Min_cycle;Max_cycle;Signal;HPM_P1;HPM_P2
2021/01/29 00:01:00;;;;;;;17.38;8.30;;;8.00;99.90;;;;;;3621665;39;20259;-73
2021/01/29 00:03:28;;;;;;;16.10;8.63;;;8.00;99.90;;;;;;3619767;39;20259;-74
2021/01/29 00:05:58;;;;;;;15.40;8.73;;;7.90;99.90;;;;;;3619811;39;20267;-73
2021/01/29 00:08:26;;;;;;;18.40;8.68;;;7.90;99.90;;;;;;3621975;39;20255;-73
2021/01/29 00:10:54;;;;;;;12.90;8.98;;;8.00;99.90;;;;;;3620466;39;20321;-73
2021/01/29 00:13:21;;;;;;;21.10;10.75;;;8.10;99.90;;;;;;3623440;39;20791;-73
2021/01/29 00:15:47;;;;;;;19.88;9.93;;;8.10;99.90;;;;;;3621481;39;20266;-73
2021/01/29 00:18:14;;;;;;;21.73;10.80;;;8.10;99.90;;;;;;3621539;39;21175;-73
2021/01/29 00:20:41;;;;;;;20.85;10.10;;;8.10;99.90;;;;;;3622142;39;20251;-73
2021/01/29 00:23:07;;;;;;;23.58;9.55;;;8.20;99.90;;;;;;3622226;39;20271;-73
2021/01/29 00:25:37;;;;;;;18.25;9.93;;;8.30;99.90;;;;;;3623032;39;20297;-73
2021/01/29 00:28:06;;;;;;;20.50;10.48;;;8.30;99.90;;;;;;3622376;39;20649;-73
2021/01/29 00:30:34;;;;;;;21.55;10.15;;;8.20;99.90;;;;;;3621241;39;20275;-74
2021/01/29 00:33:00;;;;;;;24.48;10.35;;;8.20;99.90;;;;;;3621265;39;20227;-74
2021/01/29 00:35:29;;;;;;;20.38;11.70;;;8.20;99.90;;;;;;3622929;39;20263;-74
2021/01/29 00:37:56;;;;;;;22.73;9.85;;;8.20;99.90;;;;;;3622143;39;20302;-74
2021/01/29 00:40:23;;;;;;;17.42;9.73;;;8.20;99.90;;;;;;3621327;39;20274;-74
2021/01/29 00:42:50;;;;;;;20.67;10.25;;;8.20;99.90;;;;;;3621341;39;20247;-74
2021/01/29 00:45:20;;;;;;;24.58;11.38;;;8.20;99.90;;;;;;3620908;39;20259;-73
2021/01/29 00:47:47;;;;;;;19.10;9.23;;;8.20;99.90;;;;;;3622539;39;20270;-73
2021/01/29 00:50:14;;;;;;;17.80;9.00;;;8.30;99.90;;;;;;3622001;39;20310;-73
2021/01/29 00:52:41;;;;;;;21.92;10.05;;;8.40;99.90;;;;;;3621213;39;20267;-73
2021/01/29 00:55:09;;;;;;;23.02;10.15;;;8.30;99.90;;;;;;3623084;39;20260;-73
2021/01/29 00:57:35;;;;;;;22.55;10.10;;;8.40;99.90;;;;;;3624121;39;20255;-73
2021/01/29 01:00:04;;;;;;;22.83;10.60;;;8.40;99.90;;;;;;3629860;32;20955;-73
2021/01/29 01:02:32;;;;;;;24.25;9.30;;;8.40;99.90;;;;;;3627552;39;20270;-73
2021/01/29 01:04:58;;;;;;;18.35;8.95;;;8.40;99.90;;;;;;3624762;39;20350;-73
2021/01/29 01:07:24;;;;;;;17.60;9.07;;;8.40;99.90;;;;;;3623063;39;20283;-73
2021/01/29 01:09:51;;;;;;;23.10;11.20;;;8.50;99.90;;;;;;3622103;39;20247;-73
2021/01/29 01:12:18;;;;;;;23.25;10.25;;;8.50;99.90;;;;;;3624042;39;20271;-73
2021/01/29 01:14:44;;;;;;;20.75;9.30;;;8.60;99.90;;;;;;3620860;39;20350;-73
2021/01/29 01:17:11;;;;;;;20.58;8.90;;;8.60;99.90;;;;;;3624991;39;20289;-73
2021/01/29 01:19:38;;;;;;;16.40;9.32;;;8.70;99.90;;;;;;3621099;39;20289;-73
2021/01/29 01:22:06;;;;;;;21.63;9.02;;;8.80;99.90;;;;;;3620945;39;20416;-73
2021/01/29 01:24:39;;;;;;;18.52;8.02;;;8.80;99.90;;;;;;3621017;39;20262;-73
2021/01/29 01:27:06;;;;;;;21.58;9.55;;;8.80;99.90;;;;;;3625819;32;20263;-73
2021/01/29 01:29:32;;;;;;;23.02;9.13;;;8.90;99.90;;;;;;3619952;39;20660;-73
2021/01/29 01:31:59;;;;;;;16.73;7.57;;;8.90;99.90;;;;;;3622946;39;20950;-73
2021/01/29 01:34:25;;;;;;;14.75;8.52;;;8.90;99.90;;;;;;3622765;39;20211;-73
2021/01/29 01:36:53;;;;;;;17.10;8.70;;;8.90;99.90;;;;;;3620718;39;20278;-73
2021/01/29 01:39:19;;;;;;;25.05;8.75;;;8.90;99.90;;;;;;3620748;39;20255;-73
2021/01/29 01:41:46;;;;;;;27.23;9.40;;;8.90;99.90;;;;;;3622412;39;20298;-73
2021/01/29 01:44:24;;;;;;;25.02;9.70;;;9.00;99.90;;;;;;3622713;39;20262;-73
2021/01/29 01:46:51;;;;;;;23.02;9.25;;;9.00;99.90;;;;;;3621350;39;20240;-73
2021/01/29 01:49:19;;;;;;;27.05;9.25;;;9.00;99.90;;;;;;3623589;39;20295;-73
2021/01/29 01:51:51;;;;;;;28.13;8.50;;;9.00;99.90;;;;;;3620394;39;20352;-73
2021/01/29 01:54:26;;;;;;;24.50;9.05;;;9.00;99.90;;;;;;3620591;39;20255;-74
2021/01/29 01:56:57;;;;;;;19.17;7.78;;;9.00;99.90;;;;;;3620378;39;20299;-74
2021/01/29 01:59:28;;;;;;;30.85;10.07;;;9.00;99.90;;;;;;3620613;39;20760;-74
2021/01/29 02:01:56;;;;;;;30.88;10.77;;;9.00;99.90;;;;;;3621469;39;20275;-74
2021/01/29 02:04:26;;;;;;;26.25;8.98;;;8.90;99.90;;;;;;3624436;39;20240;-74
2021/01/29 02:06:58;;;;;;;26.67;9.88;;;8.90;99.90;;;;;;3624371;39;20322;-73
2021/01/29 02:09:26;;;;;;;28.27;9.95;;;8.90;99.90;;;;;;3624685;39;20283;-73
2021/01/29 02:11:54;;;;;;;35.53;10.43;;;8.90;99.90;;;;;;3625142;39;20760;-73
2021/01/29 02:14:20;;;;;;;25.58;10.23;;;8.90;99.90;;;;;;3621137;39;20251;-74
2021/01/29 02:16:58;;;;;;;26.10;10.48;;;8.90;99.90;;;;;;3620947;39;20277;-74
2021/01/29 02:20:22;;;;;;;29.77;8.95;;;8.90;99.90;;;;;;3624347;39;20382;-73
2021/01/29 02:23:31;;;;;;;35.38;10.10;;;9.00;99.90;;;;;;3620942;39;20661;-73
2021/01/29 02:26:39;;;;;;;24.40;9.13;;;8.90;99.90;;;;;;3620209;39;20263;-73
2021/01/29 02:29:30;;;;;;;17.45;9.07;;;9.00;99.90;;;;;;3619542;39;20352;-74
2021/01/29 02:32:35;;;;;;;22.83;9.55;;;9.00;99.90;;;;;;3620820;39;20256;-73
2021/01/29 02:35:30;;;;;;;20.48;8.32;;;9.00;99.90;;;;;;3613152;39;20259;-73
2021/01/29 02:38:25;;;;;;;19.75;8.90;;;9.00;99.90;;;;;;3619570;39;20364;-73
2021/01/29 02:41:02;;;;;;;23.00;9.57;;;9.10;99.90;;;;;;3620041;39;20287;-73
2021/01/29 02:43:46;;;;;;;19.90;9.63;;;9.00;99.90;;;;;;3624188;39;20247;-73
2021/01/29 02:46:23;;;;;;;20.52;9.68;;;9.00;99.90;;;;;;3621776;39;20270;-73
2021/01/29 02:49:00;;;;;;;21.52;9.88;;;9.00;99.90;;;;;;3620582;39;20294;-75
2021/01/29 02:51:34;;;;;;;23.55;9.48;;;9.00;99.90;;;;;;3619364;39;20247;-75
2021/01/29 02:54:12;;;;;;;21.48;12.32;;;9.00;99.90;;;;;;3620914;39;20255;-76
2021/01/29 02:56:45;;;;;;;18.33;9.88;;;9.00;99.90;;;;;;3625728;39;20281;-75
2021/01/29 02:59:17;;;;;;;25.25;9.35;;;9.00;99.90;;;;;;3624591;39;20273;-75
2021/01/29 03:01:50;;;;;;;22.90;9.10;;;8.90;99.90;;;;;;3621821;39;20336;-75
2021/01/29 03:04:23;;;;;;;20.70;8.98;;;8.90;99.90;;;;;;3620306;39;20255;-76
2021/01/29 03:06:55;;;;;;;19.38;9.73;;;9.00;99.90;;;;;;3640565;31;20273;-76
2021/01/29 03:09:30;;;;;;;13.23;9.20;;;9.00;99.90;;;;;;3620177;39;20257;-76
2021/01/29 03:12:04;;;;;;;15.63;9.30;;;9.00;99.90;;;;;;3620390;39;20259;-76
2021/01/29 03:14:36;;;;;;;15.77;7.78;;;9.00;99.90;;;;;;3621377;39;20259;-76
2021/01/29 03:17:10;;;;;;;11.40;6.82;;;9.00;99.90;;;;;;3621918;39;20255;-76
2021/01/29 03:19:42;;;;;;;11.93;6.85;;;9.00;99.90;;;;;;3623179;39;20636;-76
2021/01/29 03:22:13;;;;;;;13.90;6.32;;;9.00;99.90;;;;;;3626221;32;20299;-76
2021/01/29 03:24:45;;;;;;;7.95;5.85;;;9.00;99.90;;;;;;3621120;39;20251;-75
2021/01/29 03:27:16;;;;;;;10.10;7.03;;;9.00;99.90;;;;;;3622845;39;20729;-76
2021/01/29 03:29:46;;;;;;;10.45;5.75;;;8.90;99.90;;;;;;3635734;32;20239;-76
2021/01/29 03:32:15;;;;;;;14.90;5.75;;;8.90;99.90;;;;;;3620370;39;20331;-74
2021/01/29 03:34:48;;;;;;;8.75;5.38;;;8.90;99.90;;;;;;3625627;39;20267;-74
2021/01/29 03:37:22;;;;;;;7.18;4.75;;;9.00;99.90;;;;;;3621434;39;20283;-74
2021/01/29 03:39:50;;;;;;;12.88;4.88;;;9.00;99.90;;;;;;3621017;39;20305;-74
2021/01/29 03:42:26;;;;;;;8.85;4.88;;;9.00;99.90;;;;;;3622861;39;20289;-74
2021/01/29 03:45:00;;;;;;;15.98;4.65;;;9.00;99.90;;;;;;3622750;39;20280;-74
2021/01/29 03:47:33;;;;;;;9.65;4.80;;;9.00;99.90;;;;;;3621558;39;20347;-75
2021/01/29 03:50:15;;;;;;;10.07;5.32;;;9.00;99.90;;;;;;3621524;39;20823;-75
2021/01/29 03:52:51;;;;;;;8.10;5.15;;;9.00;99.90;;;;;;3621410;39;20289;-74
2021/01/29 03:55:32;;;;;;;7.75;5.80;;;9.00;99.90;;;;;;3624620;39;20878;-75
2021/01/29 03:58:06;;;;;;;14.35;5.80;;;9.00;99.90;;;;;;3624466;39;20286;-77
2021/01/29 04:00:38;;;;;;;9.02;5.55;;;9.00;99.90;;;;;;3622272;39;20250;-76
2021/01/29 04:03:13;;;;;;;16.40;6.65;;;9.00;99.90;;;;;;3623585;39;20290;-76
2021/01/29 04:05:51;;;;;;;14.18;6.18;;;9.00;99.90;;;;;;3620859;39;20282;-76
2021/01/29 04:08:23;;;;;;;15.77;7.18;;;9.00;99.90;;;;;;3623617;32;20287;-77
2021/01/29 04:10:57;;;;;;;9.35;6.38;;;9.00;99.90;;;;;;3627094;39;20243;-77
2021/01/29 04:13:29;;;;;;;16.17;6.80;;;9.00;99.90;;;;;;3622921;39;20838;-77
2021/01/29 04:15:56;;;;;;;17.63;6.13;;;9.10;99.90;;;;;;3621660;39;20263;-77
2021/01/29 04:18:26;;;;;;;15.95;7.07;;;9.10;99.90;;;;;;3621528;39;20254;-77
2021/01/29 04:20:59;;;;;;;10.55;6.15;;;9.10;99.90;;;;;;3622531;39;20376;-76
2021/01/29 04:23:30;;;;;;;12.05;7.07;;;9.10;99.90;;;;;;3626792;39;20263;-76
2021/01/29 04:26:02;;;;;;;12.23;7.50;;;9.10;99.90;;;;;;3621836;39;20251;-76
2021/01/29 04:28:33;;;;;;;13.32;6.65;;;9.10;99.90;;;;;;3624969;39;20690;-76
2021/01/29 04:31:04;;;;;;;15.25;6.78;;;9.10;99.90;;;;;;3621585;39;20251;-76
2021/01/29 04:33:36;;;;;;;13.13;5.97;;;9.10;99.90;;;;;;3622863;39;20259;-76
2021/01/29 04:36:05;;;;;;;11.30;6.70;;;9.10;99.90;;;;;;3621170;39;20243;-76
2021/01/29 04:38:40;;;;;;;12.57;7.40;;;9.00;99.90;;;;;;3622167;39;20251;-76
2021/01/29 04:41:18;;;;;;;11.25;7.05;;;9.10;99.90;;;;;;3622576;39;20417;-76
2021/01/29 04:44:13;;;;;;;15.02;6.80;;;9.10;99.90;;;;;;3625645;39;20259;-77
2021/01/29 04:46:56;;;;;;;10.55;6.90;;;9.20;99.90;;;;;;3621710;39;20247;-76
2021/01/29 04:49:32;;;;;;;14.50;6.07;;;9.20;99.90;;;;;;3624549;39;20243;-76
2021/01/29 04:52:41;;;;;;;12.32;6.47;;;9.30;99.90;;;;;;3621825;39;20258;-77
2021/01/29 04:55:36;;;;;;;13.98;6.28;;;9.30;99.90;;;;;;3621298;39;20277;-77
2021/01/29 04:58:09;;;;;;;9.30;6.15;;;9.30;99.90;;;;;;3621874;39;20780;-77
2021/01/29 05:01:01;;;;;;;12.05;6.43;;;9.30;99.90;;;;;;3629134;39;20725;-77
2021/01/29 05:04:02;;;;;;;15.95;6.50;;;9.30;99.90;;;;;;3622761;39;20255;-76
2021/01/29 05:07:12;;;;;;;11.77;6.78;;;9.30;99.90;;;;;;3627717;39;20265;-77
2021/01/29 05:10:13;;;;;;;11.30;6.25;;;9.30;99.90;;;;;;3610522;39;20933;-75
2021/01/29 05:13:08;;;;;;;13.02;6.43;;;9.30;99.90;;;;;;3612324;39;20248;-76
2021/01/29 05:16:05;;;;;;;8.68;5.72;;;9.30;99.90;;;;;;3611566;39;20380;-76
2021/01/29 05:19:10;;;;;;;10.75;5.90;;;9.30;99.90;;;;;;3611675;39;20255;-76
2021/01/29 05:21:50;;;;;;;11.23;6.22;;;9.30;99.90;;;;;;3603795;39;20267;-76
2021/01/29 05:24:48;;;;;;;9.48;6.20;;;9.40;99.90;;;;;;3613286;39;20255;-77
2021/01/29 05:27:41;;;;;;;12.98;6.28;;;9.50;99.90;;;;;;3612025;39;20298;-77
2021/01/29 05:30:25;;;;;;;12.85;5.90;;;9.50;99.90;;;;;;3608222;39;20271;-77
2021/01/29 05:33:19;;;;;;;12.57;5.70;;;9.50;99.90;;;;;;3609250;39;20266;-77
2021/01/29 05:36:16;;;;;;;15.05;5.90;;;9.50;99.90;;;;;;3604990;39;20400;-77
2021/01/29 05:39:04;;;;;;;15.68;6.20;;;9.50;99.90;;;;;;3611190;39;20255;-76
2021/01/29 05:42:02;;;;;;;10.65;6.07;;;9.50;99.90;;;;;;3607853;39;20256;-77
2021/01/29 05:45:01;;;;;;;10.25;6.65;;;9.50;99.90;;;;;;3607904;39;20334;-76
2021/01/29 05:47:56;;;;;;;9.77;5.45;;;9.50;99.90;;;;;;3620113;39;20251;-76
2021/01/29 05:50:52;;;;;;;12.95;6.80;;;9.60;99.90;;;;;;3619789;39;20298;-76
2021/01/29 05:53:35;;;;;;;11.27;6.50;;;9.60;99.90;;;;;;3617056;39;20266;-77
2021/01/29 05:56:06;;;;;;;9.82;6.25;;;9.60;99.90;;;;;;3624073;39;20263;-76
2021/01/29 05:58:57;;;;;;;12.40;7.22;;;9.60;99.90;;;;;;3621672;39;20869;-76
2021/01/29 06:02:00;;;;;;;11.77;6.53;;;9.70;99.90;;;;;;3620611;39;20262;-76
2021/01/29 06:04:55;;;;;;;15.18;6.72;;;9.70;99.90;;;;;;3620523;39;20267;-76
2021/01/29 06:07:51;;;;;;;10.38;6.13;;;9.60;99.90;;;;;;3624004;39;20270;-77
2021/01/29 06:10:40;;;;;;;9.02;5.72;;;9.50;99.90;;;;;;3620306;39;20250;-76
2021/01/29 06:13:41;;;;;;;10.25;6.72;;;9.50;99.90;;;;;;3620192;39;20287;-77
2021/01/29 06:20:13;;;;;;;10.20;5.68;;;9.40;99.90;;;;;;3626062;31;20240;-77
2021/01/29 06:23:02;;;;;;;14.10;5.97;;;9.40;99.90;;;;;;3620918;39;20247;-76
2021/01/29 06:25:48;;;;;;;8.57;5.13;;;9.40;99.90;;;;;;3623434;39;20354;-76
2021/01/29 06:28:54;;;;;;;8.15;5.85;;;9.40;99.90;;;;;;3620819;39;20333;-77
2021/01/29 06:32:24;;;;;;;8.60;5.70;;;9.40;99.90;;;;;;3621629;39;20806;-76
2021/01/29 06:35:32;;;;;;;8.68;5.93;;;9.30;99.90;;;;;;3588220;40;20470;-77
2021/01/29 06:38:25;;;;;;;9.23;6.50;;;9.30;99.90;;;;;;3587146;40;20272;-77
2021/01/29 06:41:00;;;;;;;10.25;6.20;;;9.30;99.90;;;;;;3588530;40;20263;-77
2021/01/29 06:43:39;;;;;;;12.88;7.38;;;9.30;99.90;;;;;;3589396;40;20287;-77
2021/01/29 06:46:38;;;;;;;11.82;5.90;;;9.30;99.90;;;;;;3587410;40;20268;-77
2021/01/29 06:49:30;;;;;;;7.85;4.97;;;9.30;99.90;;;;;;3586045;40;20365;-77
2021/01/29 06:52:40;;;;;;;7.97;4.38;;;9.30;99.90;;;;;;3582546;40;20889;-77
2021/01/29 06:55:37;;;;;;;17.08;3.78;;;9.30;99.90;;;;;;3589428;40;20262;-77
2021/01/29 06:58:28;;;;;;;7.22;4.10;;;9.30;99.90;;;;;;3569843;40;20245;-77
2021/01/29 07:01:20;;;;;;;5.13;3.50;;;9.30;99.90;;;;;;3573672;40;20400;-76
2021/01/29 07:04:33;;;;;;;4.07;3.53;;;9.30;99.90;;;;;;3595623;32;20298;-77
2021/01/29 07:07:06;;;;;;;3.25;2.88;;;9.30;99.90;;;;;;3620870;39;20253;-77
2021/01/29 07:09:53;;;;;;;2.90;2.65;;;9.30;99.90;;;;;;3621103;39;20270;-77
2021/01/29 07:12:35;;;;;;;3.53;2.60;;;9.30;99.90;;;;;;3622188;31;20573;-77
2021/01/29 07:15:10;;;;;;;3.00;2.70;;;9.30;99.90;;;;;;3645481;31;20259;-77
2021/01/29 07:17:52;;;;;;;4.10;3.20;;;9.30;99.90;;;;;;3625987;39;20105;-77
2021/01/29 07:20:58;;;;;;;4.13;3.45;;;9.30;99.90;;;;;;3621456;39;20352;-76
2021/01/29 07:23:52;;;;;;;5.78;3.70;;;9.30;99.90;;;;;;3612933;39;20259;-76
2021/01/29 07:26:36;;;;;;;6.80;4.35;;;9.30;99.90;;;;;;3626281;39;20270;-76
2021/01/29 07:29:25;;;;;;;6.97;4.20;;;9.30;99.90;;;;;;3624129;39;20358;-76
2021/01/29 07:32:04;;;;;;;4.80;3.92;;;9.30;99.90;;;;;;3621370;39;20297;-77
2021/01/29 07:34:41;;;;;;;5.88;4.40;;;9.30;99.90;;;;;;3622553;39;20271;-76
2021/01/29 07:37:39;;;;;;;6.75;4.47;;;9.40;99.90;;;;;;3622814;39;20270;-76
2021/01/29 07:40:22;;;;;;;11.93;5.22;;;9.40;99.90;;;;;;3621544;39;20346;-76
2021/01/29 07:43:05;;;;;;;10.07;6.75;;;9.30;99.90;;;;;;3621286;39;20294;-76
2021/01/29 07:45:51;;;;;;;11.45;6.50;;;9.40;99.90;;;;;;3621948;39;20251;-76
2021/01/29 07:49:01;;;;;;;8.13;6.63;;;9.40;99.90;;;;;;3625887;39;20247;-78
2021/01/29 07:51:38;;;;;;;10.90;7.88;;;9.40;99.90;;;;;;3621927;39;20872;-76
2021/01/29 07:54:38;;;;;;;9.52;6.75;;;9.50;99.90;;;;;;3620969;39;20304;-76
2021/01/29 07:57:19;;;;;;;11.77;8.00;;;9.50;99.90;;;;;;3609027;39;20287;-76
2021/01/29 08:00:08;;;;;;;11.00;7.35;;;9.50;99.90;;;;;;3631763;31;20621;-76
2021/01/29 08:02:53;;;;;;;13.18;7.63;;;9.50;99.90;;;;;;3622587;39;20271;-76
2021/01/29 08:05:27;;;;;;;15.25;8.63;;;9.50;99.90;;;;;;3633479;31;20262;-76
2021/01/29 08:07:58;;;;;;;14.13;9.27;;;9.50;99.90;;;;;;3624118;39;20275;-75
2021/01/29 08:10:31;;;;;;;19.10;8.85;;;9.50;99.90;;;;;;3621572;39;20344;-76
2021/01/29 08:13:13;;;;;;;15.55;9.98;;;9.50;99.90;;;;;;3622015;39;20281;-76
2021/01/29 08:15:57;;;;;;;18.27;11.05;;;9.50;99.90;;;;;;3622042;39;20273;-77
2021/01/29 08:18:42;;;;;;;20.13;10.15;;;9.50;99.90;;;;;;3620870;39;20298;-76
2021/01/29 08:21:34;;;;;;;25.77;10.70;;;9.50;99.90;;;;;;3621799;39;20258;-76
2021/01/29 08:24:11;;;;;;;14.15;8.77;;;9.50;99.90;;;;;;3610525;39;20751;-76
2021/01/29 08:27:03;;;;;;;18.83;8.70;;;9.50;99.90;;;;;;3623710;39;20251;-76
2021/01/29 08:30:07;;;;;;;11.38;7.55;;;9.50;99.90;;;;;;3617667;39;20278;-76
2021/01/29 08:33:05;;;;;;;20.30;7.57;;;9.40;99.90;;;;;;3619535;39;20251;-76
2021/01/29 08:35:47;;;;;;;16.52;6.68;;;9.40;99.90;;;;;;3618172;39;20280;-76
2021/01/29 08:38:20;;;;;;;15.73;6.50;;;9.40;99.90;;;;;;3621127;39;20258;-76
2021/01/29 08:40:56;;;;;;;20.67;7.90;;;9.50;99.90;;;;;;3622120;39;20287;-76
2021/01/29 08:43:41;;;;;;;15.43;7.75;;;9.50;99.90;;;;;;3624546;32;20259;-76
2021/01/29 08:46:29;;;;;;;19.15;8.23;;;9.40;99.90;;;;;;3626137;39;20286;-76
2021/01/29 08:49:22;;;;;;;27.13;9.10;;;9.40;99.90;;;;;;3621324;39;20359;-76
2021/01/29 08:51:57;;;;;;;23.65;7.75;;;9.40;99.90;;;;;;3621929;39;20299;-76
2021/01/29 08:54:54;;;;;;;23.20;8.48;;;9.40;99.90;;;;;;3621676;39;20239;-76
2021/01/29 08:57:32;;;;;;;27.13;7.63;;;9.40;99.90;;;;;;3623740;39;20244;-76
2021/01/29 09:00:00;;;;;;;29.13;7.60;;;9.30;99.90;;;;;;3624572;39;20263;-76
2021/01/29 09:02:36;;;;;;;20.15;7.35;;;9.30;99.90;;;;;;3621007;39;20352;-76
2021/01/29 09:05:08;;;;;;;22.67;8.15;;;9.30;99.90;;;;;;3622417;39;20251;-76
2021/01/29 09:07:39;;;;;;;27.20;8.95;;;9.40;99.90;;;;;;3620674;39;20368;-76
2021/01/29 09:10:20;;;;;;;25.42;8.38;;;9.30;99.90;;;;;;3622571;39;20286;-76
2021/01/29 09:12:56;;;;;;;18.55;7.03;;;9.40;99.90;;;;;;3624491;39;20307;-76
2021/01/29 09:15:26;;;;;;;41.40;8.85;;;9.30;99.90;;;;;;3621265;39;20294;-76
2021/01/29 09:17:59;;;;;;;30.17;8.57;;;9.30;99.90;;;;;;3623722;39;20291;-76
2021/01/29 09:20:31;;;;;;;31.73;8.57;;;9.40;99.90;;;;;;3624682;39;20263;-76
2021/01/29 09:23:04;;;;;;;26.42;8.15;;;9.30;99.90;;;;;;3623392;39;20283;-77
2021/01/29 09:25:40;;;;;;;24.80;7.72;;;9.30;99.90;;;;;;3624976;39;20370;-77
2021/01/29 09:28:10;;;;;;;24.13;9.43;;;9.30;99.90;;;;;;3644883;31;20589;-77
2021/01/29 09:30:50;;;;;;;35.38;8.93;;;9.30;99.90;;;;;;3623366;39;20313;-77
2021/01/29 09:33:25;;;;;;;27.02;8.32;;;9.30;99.90;;;;;;3630157;31;20290;-77
2021/01/29 09:35:56;;;;;;;24.38;9.27;;;9.30;99.90;;;;;;3623258;39;20243;-77
2021/01/29 09:38:28;;;;;;;29.25;8.60;;;9.30;99.90;;;;;;3620769;39;20296;-76
2021/01/29 09:41:07;;;;;;;27.33;7.70;;;9.30;99.90;;;;;;3629322;39;20363;-77
2021/01/29 09:43:48;;;;;;;28.65;8.98;;;9.20;99.90;;;;;;3620859;39;20277;-76
2021/01/29 09:46:22;;;;;;;30.30;8.30;;;9.10;99.90;;;;;;3627293;39;20343;-76
2021/01/29 09:48:54;;;;;;;32.08;8.50;;;9.10;99.90;;;;;;3625568;39;20269;-76
2021/01/29 09:51:37;;;;;;;25.85;9.05;;;9.10;99.90;;;;;;3625942;39;20247;-76
2021/01/29 09:54:08;;;;;;;36.88;9.98;;;9.10;99.90;;;;;;3622323;39;20242;-76
2021/01/29 09:56:40;;;;;;;29.88;9.02;;;9.10;99.90;;;;;;3620625;39;20329;-76
2021/01/29 09:59:24;;;;;;;35.00;11.00;;;9.10;99.90;;;;;;3642234;31;20780;-76
2021/01/29 10:02:01;;;;;;;39.28;13.30;;;9.20;99.90;;;;;;3624203;39;20274;-76
2021/01/29 10:04:51;;;;;;;51.65;11.27;;;9.20;99.90;;;;;;3626556;39;20275;-76
2021/01/29 10:07:23;;;;;;;24.67;8.85;;;9.20;99.90;;;;;;3625100;39;20302;-76
2021/01/29 10:10:01;;;;;;;41.13;8.27;;;9.20;99.90;;;;;;3622846;39;20262;-76
2021/01/29 10:12:31;;;;;;;37.28;9.50;;;9.20;99.90;;;;;;3622439;39;20827;-76
2021/01/29 10:15:04;;;;;;;43.70;8.93;;;9.20;99.90;;;;;;3619270;39;20332;-76
2021/01/29 10:17:35;;;;;;;29.45;7.88;;;9.30;99.90;;;;;;3620071;39;20752;-76
2021/01/29 10:20:06;;;;;;;21.38;8.57;;;9.30;99.90;;;;;;3620935;39;20675;-76
2021/01/29 10:23:04;;;;;;;26.48;9.10;;;9.40;99.90;;;;;;3619862;39;20251;-76
2021/01/29 10:25:42;;;;;;;25.52;8.43;;;9.50;99.90;;;;;;3623906;39;20277;-75
2021/01/29 10:28:17;;;;;;;22.35;7.78;;;9.60;99.90;;;;;;3620522;39;20363;-75
2021/01/29 10:30:50;;;;;;;29.55;8.27;;;9.60;99.90;;;;;;3620578;39;20273;-75
2021/01/29 10:33:21;;;;;;;22.23;7.90;;;9.60;99.90;;;;;;3620323;39;20678;-75
2021/01/29 10:35:55;;;;;;;31.05;6.80;;;9.70;99.90;;;;;;3624337;39;20575;-79
2021/01/29 10:38:31;;;;;;;20.92;8.00;;;9.70;99.90;;;;;;3621946;39;20384;-75
2021/01/29 10:41:06;;;;;;;29.73;8.38;;;9.80;99.90;;;;;;3623483;39;20267;-75
2021/01/29 10:43:42;;;;;;;21.50;7.35;;;9.80;99.90;;;;;;3623511;39;20242;-75
2021/01/29 10:46:28;;;;;;;29.05;8.85;;;9.90;99.90;;;;;;3620298;39;20266;-75
2021/01/29 10:49:05;;;;;;;29.25;7.97;;;10.00;99.90;;;;;;3622203;39;20247;-75
2021/01/29 10:51:46;;;;;;;33.08;7.70;;;9.90;99.90;;;;;;3621588;39;20261;-75
2021/01/29 10:54:15;;;;;;;28.20;7.05;;;10.00;99.90;;;;;;3620707;39;20266;-75
2021/01/29 10:56:54;;;;;;;18.48;6.80;;;10.10;99.90;;;;;;3620523;39;20244;-75
2021/01/29 10:59:25;;;;;;;25.35;7.40;;;10.10;99.90;;;;;;3620449;39;20252;-75
2021/01/29 11:15:12;;;;;;;16.00;6.00;;;10.30;99.90;;;;;;3641473;31;20251;-75
2021/01/29 11:17:44;;;;;;;24.73;5.55;;;10.40;99.90;;;;;;3629073;39;20653;-76
2021/01/29 11:20:17;;;;;;;22.30;6.70;;;10.50;99.90;;;;;;3631616;39;20270;-76
2021/01/29 11:22:56;;;;;;;27.00;6.85;;;10.60;99.90;;;;;;3627988;39;20797;-77
2021/01/29 11:25:57;;;;;;;24.92;8.07;;;10.70;99.90;;;;;;3628419;39;20255;-76
2021/01/29 11:28:46;;;;;;;30.63;8.18;;;10.80;99.90;;;;;;3627930;39;20350;-76
2021/01/29 11:31:17;;;;;;;16.95;6.45;;;10.90;99.90;;;;;;3628798;39;20323;-77
2021/01/29 11:33:49;;;;;;;24.17;7.07;;;10.90;99.90;;;;;;3631636;39;20240;-76
2021/01/29 11:36:31;;;;;;;19.88;6.90;;;10.90;99.90;;;;;;3639433;31;20585;-76
2021/01/29 11:39:08;;;;;;;17.95;6.35;;;10.90;99.90;;;;;;3632029;39;20247;-76
2021/01/29 11:41:56;;;;;;;26.08;5.72;;;11.00;99.90;;;;;;3633615;39;20270;-76
2021/01/29 11:44:32;;;;;;;20.27;7.65;;;11.10;99.90;;;;;;3630196;39;20247;-76
2021/01/29 11:47:05;;;;;;;16.15;6.18;;;11.00;99.90;;;;;;3628024;39;20263;-76
2021/01/29 11:49:37;;;;;;;30.10;7.65;;;10.80;99.90;;;;;;3639182;31;20259;-76
2021/01/29 11:52:17;;;;;;;61.33;17.58;;;10.70;99.90;;;;;;3631804;39;20271;-74
2021/01/29 11:54:49;;;;;;;29.67;8.57;;;10.60;99.90;;;;;;3629000;39;20250;-74
2021/01/29 11:57:22;;;;;;;21.98;7.43;;;10.60;99.90;;;;;;3630351;39;20329;-74
2021/01/29 11:59:56;;;;;;;24.40;8.30;;;10.40;99.90;;;;;;3657453;31;20282;-74
2021/01/29 12:02:32;;;;;;;22.80;8.50;;;10.30;99.90;;;;;;3628323;39;20273;-74
2021/01/29 12:05:34;;;;;;;27.27;8.90;;;10.20;99.90;;;;;;3630906;39;20255;-74
2021/01/29 12:08:23;;;;;;;24.98;8.32;;;10.20;99.90;;;;;;3632445;39;20269;-74
2021/01/29 12:10:59;;;;;;;20.23;8.88;;;10.20;99.90;;;;;;3628885;39;20247;-74
2021/01/29 12:13:34;;;;;;;23.70;7.57;;;10.20;99.90;;;;;;3634252;39;20305;-74
2021/01/29 12:16:03;;;;;;;22.80;7.22;;;10.20;99.90;;;;;;3622799;39;20335;-74
2021/01/29 12:18:35;;;;;;;27.20;9.98;;;10.30;99.90;;;;;;3623495;39;20253;-74
2021/01/29 12:21:10;;;;;;;25.52;9.35;;;10.30;99.90;;;;;;3623923;39;20305;-74
2021/01/29 12:23:43;;;;;;;21.13;7.47;;;10.40;99.90;;;;;;3621951;31;20321;-74
2021/01/29 12:26:22;;;;;;;27.85;8.88;;;10.50;99.90;;;;;;3622858;39;20255;-72
2021/01/29 12:29:01;;;;;;;27.60;9.05;;;10.50;99.90;;;;;;3622633;39;20247;-72
2021/01/29 12:31:48;;;;;;;31.30;8.65;;;10.70;99.90;;;;;;3622667;39;20339;-72
2021/01/29 12:34:28;;;;;;;24.25;7.55;;;10.80;99.90;;;;;;3621484;39;20251;-72
2021/01/29 12:37:01;;;;;;;25.60;8.00;;;10.90;99.90;;;;;;3621168;39;20263;-72
2021/01/29 12:39:37;;;;;;;25.05;6.97;;;11.10;99.90;;;;;;3623636;39;20286;-72
2021/01/29 12:42:10;;;;;;;28.17;8.20;;;11.20;99.90;;;;;;3627238;39;20707;-71
2021/01/29 12:44:46;;;;;;;33.00;11.32;;;11.30;99.90;;;;;;3624620;39;20248;-73
2021/01/29 12:47:21;;;;;;;32.35;10.38;;;11.40;99.90;;;;;;3620561;39;20250;-72
2021/01/29 12:49:57;;;;;;;25.67;6.57;;;11.30;99.90;;;;;;3626221;39;20246;-72
2021/01/29 12:52:28;;;;;;;31.00;9.30;;;11.30;99.90;;;;;;3625619;39;20396;-72
2021/01/29 12:55:04;;;;;;;18.90;5.10;;;11.30;99.90;;;;;;3620920;39;20294;-72
2021/01/29 12:57:32;;;;;;;25.20;4.60;;;11.30;99.90;;;;;;3620189;39;20374;-72
2021/01/29 13:00:12;;;;;;;17.63;4.35;;;11.30;99.90;;;;;;3621209;39;20254;-72
2021/01/29 13:03:16;;;;;;;13.57;4.72;;;11.40;99.90;;;;;;3620874;39;20260;-72
2021/01/29 13:05:55;;;;;;;23.90;6.20;;;11.40;99.90;;;;;;3588422;40;20248;-72
2021/01/29 13:08:49;;;;;;;27.60;5.20;;;11.30;99.90;;;;;;3594362;40;20255;-72
2021/01/29 13:11:29;;;;;;;16.90;4.43;;;11.20;99.90;;;;;;3585704;40;20307;-72
2021/01/29 13:14:19;;;;;;;20.75;4.13;;;11.20;99.90;;;;;;3591704;40;20271;-72
2021/01/29 13:17:09;;;;;;;20.95;4.50;;;11.10;99.90;;;;;;3588971;40;20272;-72
2021/01/29 13:19:39;;;;;;;25.65;4.40;;;11.10;99.90;;;;;;3592622;40;20338;-72
2021/01/29 13:22:23;;;;;;;29.77;5.70;;;11.10;99.90;;;;;;3591148;32;20300;-72
2021/01/29 13:25:03;;;;;;;25.48;6.03;;;11.20;99.90;;;;;;3588232;40;20381;-72
2021/01/29 13:27:34;;;;;;;20.42;4.63;;;11.30;99.90;;;;;;3587872;40;20363;-72
2021/01/29 13:30:18;;;;;;;19.65;4.57;;;11.60;99.90;;;;;;3590900;40;20272;-72
2021/01/29 13:32:46;;;;;;;11.52;4.20;;;11.80;99.90;;;;;;3591070;40;20239;-72
2021/01/29 13:35:13;;;;;;;12.45;3.75;;;12.00;99.90;;;;;;3594693;40;20272;-71
2021/01/29 13:37:41;;;;;;;18.00;5.30;;;12.20;99.90;;;;;;3624642;39;20255;-72
2021/01/29 13:40:12;;;;;;;20.95;4.32;;;12.30;99.90;;;;;;3621830;39;20263;-72
2021/01/29 13:42:42;;;;;;;15.57;3.45;;;12.40;99.90;;;;;;3620542;39;20278;-74
2021/01/29 13:45:14;;;;;;;12.27;4.80;;;12.40;99.90;;;;;;3620630;39;20255;-73
2021/01/29 13:47:45;;;;;;;10.55;3.50;;;12.30;99.90;;;;;;3623035;39;20250;-74
2021/01/29 13:50:21;;;;;;;6.50;2.22;;;12.10;99.90;;;;;;3625790;39;20278;-74
2021/01/29 13:52:49;;;;;;;4.93;1.90;;;11.50;99.90;;;;;;3624950;39;20255;-72
2021/01/29 13:55:27;;;;;;;5.15;2.13;;;11.00;99.90;;;;;;3637165;31;20295;-72
2021/01/29 13:58:00;;;;;;;5.88;2.80;;;10.60;99.90;;;;;;3620222;39;20360;-72
2021/01/29 14:00:32;;;;;;;8.88;3.15;;;10.20;99.90;;;;;;3620606;39;20802;-72
2021/01/29 14:03:05;;;;;;;13.27;3.47;;;10.00;99.90;;;;;;3624564;39;20260;-72